KBBF

Brazos 133

Brazos 133, Texas, USA
METAR KBBF 222135Z AUTO 03018KT 5SM HZ CLR 21/14 A2996 RMK A01
Observed Flight Rules
Apr-22 @ 21:35 UTC (11 minutes ago) Marginal Visual Flight Rules
Wind Visibility Clouds Conditions
30° at 18 knots 5 miles
  • Clear skies
  • Haze
Temperatures Readings
Current 21°C / 70°F
Dewpoint 14°C / 57°F
Humidity 64%
Altimeter 29.96" Hg
Pressure 1015 hPa
Elevation 36
METAR KBBF 222135Z AUTO 03018KT 5SM HZ CLR 21/14 A2996 RMK A01
Observed Flight Rules
Apr-22 @ 21:35 UTC
(11 minutes ago)
MVFR
Wind Visibility
30° at 18 knots 5 miles
Clouds
  • Clear skies
Conditions
  • Haze
Temperature Dewpoint
21°C / 70°F 14°C / 57°F
Humidity Altimeter Pressure
64% 29.96" Hg 1015 hPa